Time;durP1;ratioP1;P1;durP2;ratioP2;P2;SDS_P1;SDS_P2;PMS_P1;PMS_P2;Temp;Humidity;BMP_temperature;BMP_pressure;BME280_temperature;BME280_humidity;BME280_pressure;Samples;Min_cycle;Max_cycle;Signal;HPM_P1;HPM_P2
2023/12/25 00:02:23;;;;;;;19.08;2.53;;;;;;;9.72;100.00;99374.06;4998998;28;20044;-96
2023/12/25 00:04:58;;;;;;;20.02;2.65;;;;;;;9.68;100.00;99361.19;5013025;28;20041;-96
2023/12/25 00:07:27;;;;;;;17.50;2.72;;;;;;;9.61;100.00;99362.03;4995023;28;20034;-96
2023/12/25 00:09:53;;;;;;;24.17;3.72;;;;;;;9.58;100.00;99350.00;4988496;28;20146;-96
2023/12/25 00:12:23;;;;;;;24.38;3.20;;;;;;;9.60;100.00;99357.75;5004038;28;20042;-96
2023/12/25 00:14:49;;;;;;;26.05;4.07;;;;;;;9.54;100.00;99354.78;5011013;28;20039;-94
2023/12/25 00:17:15;;;;;;;18.92;2.83;;;;;;;9.54;100.00;99354.78;5009693;28;20045;-95
2023/12/25 00:19:41;;;;;;;24.65;3.65;;;;;;;9.54;100.00;99349.50;5015696;28;20033;-95
2023/12/25 00:22:07;;;;;;;19.67;2.88;;;;;;;9.52;100.00;99342.75;4996327;28;20037;-95
2023/12/25 00:24:33;;;;;;;33.60;3.60;;;;;;;9.51;100.00;99351.63;4991394;28;20358;-95
2023/12/25 00:26:59;;;;;;;23.00;3.55;;;;;;;9.42;100.00;99343.75;4993925;28;20037;-95
2023/12/25 00:29:24;;;;;;;30.20;4.10;;;;;;;9.52;100.00;99358.59;5012180;28;20034;-95
2023/12/25 00:31:50;;;;;;;30.67;3.47;;;;;;;9.50;100.00;99337.63;4997461;28;20091;-96
2023/12/25 00:34:18;;;;;;;22.48;3.40;;;;;;;9.54;100.00;99349.50;5010921;28;20037;-96
2023/12/25 00:36:44;;;;;;;16.98;2.70;;;;;;;9.52;100.00;99335.63;4998257;28;20105;-96
2023/12/25 00:39:11;;;;;;;34.40;4.55;;;;;;;9.59;100.00;99327.09;4990249;28;20077;-96
2023/12/25 00:41:40;;;;;;;20.08;3.65;;;;;;;9.56;100.00;99325.59;4995497;28;20048;-96
2023/12/25 00:44:22;;;;;;;20.05;3.35;;;;;;;9.68;100.00;99344.56;4980829;28;20649;-94
2023/12/25 00:46:53;;;;;;;21.33;3.58;;;;;;;9.67;100.00;99334.97;5010806;28;20037;-96
2023/12/25 00:49:50;;;;;;;33.20;5.05;;;;;;;9.74;100.00;99322.78;4969299;28;20590;-96
2023/12/25 00:52:49;;;;;;;18.50;3.08;;;;;;;9.73;100.00;99328.22;4975854;28;20494;-96
2023/12/25 00:59:06;;;;;;;;;;;;;;;;;;;;;
2023/12/25 01:02:52;;;;;;;;;;;;;;;;;;;;;
2023/12/25 01:06:12;;;;;;;16.42;2.83;;;;;;;9.74;100.00;99322.78;4962682;28;20042;-96
2023/12/25 01:09:28;;;;;;;18.35;3.53;;;;;;;9.77;100.00;99308.44;4914419;29;20051;-96
2023/12/25 01:11:59;;;;;;;17.75;2.60;;;;;;;9.71;100.00;99317.00;4951779;28;20169;-95
2023/12/25 01:15:29;;;;;;;18.48;3.17;;;;;;;9.80;100.00;99322.13;4900567;29;20052;-96
2023/12/25 01:18:16;;;;;;;18.95;2.40;;;;;;;9.73;100.00;99322.97;4936377;28;20562;-95
2023/12/25 01:27:22;;;;;;;23.77;3.42;;;;;;;9.66;100.00;99325.44;5197390;23;20053;-91
2023/12/25 01:29:56;;;;;;;19.20;2.35;;;;;;;9.77;100.00;99334.81;4998866;28;20040;-95
2023/12/25 01:32:32;;;;;;;24.95;3.60;;;;;;;9.75;100.00;99334.97;5008505;28;20041;-95
2023/12/25 01:35:38;;;;;;;;;;;;;;;;;;;;;
2023/12/25 01:38:33;;;;;;;25.67;2.80;;;;;;;9.80;100.00;99340.59;5043735;28;20065;-93
2023/12/25 01:41:02;;;;;;;18.40;2.70;;;;;;;9.85;100.00;99345.38;5007823;28;20049;-95
2023/12/25 01:43:36;;;;;;;16.67;2.55;;;;;;;9.89;100.00;99351.16;5001503;28;20049;-96
2023/12/25 01:46:41;;;;;;;20.73;3.08;;;;;;;9.85;100.00;99340.09;4997713;28;20030;-94
2023/12/25 01:50:00;;;;;;;17.88;2.92;;;;;;;9.87;100.00;99335.47;5027120;28;20050;-96
2023/12/25 01:52:55;;;;;;;;;;;;;;;;;;;;;
2023/12/25 01:59:31;;;;;;;21.85;3.67;;;;;;;9.85;100.00;99360.38;5007247;28;20077;-96
2023/12/25 02:02:24;;;;;;;17.30;3.17;;;;;;;9.88;100.00;99358.22;5016525;28;20046;-95
2023/12/25 02:05:08;;;;;;;;;;;;;;;;;;;;;
2023/12/25 02:07:46;;;;;;;19.80;3.08;;;;;;;9.75;100.00;99342.91;5019016;28;20042;-94
2023/12/25 02:10:32;;;;;;;23.70;2.85;;;;;;;9.72;100.00;99359.06;5010896;28;20033;-95
2023/12/25 02:17:17;;;;;;;15.73;2.83;;;;;;;9.67;100.00;99356.09;5012937;28;20394;-95
2023/12/25 02:19:54;;;;;;;13.73;2.25;;;;;;;9.60;100.00;99350.69;4996600;28;20061;-95
2023/12/25 02:22:44;;;;;;;14.02;2.25;;;;;;;9.59;100.00;99361.38;4996803;28;20041;-95
2023/12/25 02:25:36;;;;;;;12.73;1.88;;;;;;;9.56;100.00;99351.97;5003220;28;20064;-96
2023/12/25 02:28:10;;;;;;;11.00;1.73;;;;;;;9.47;100.00;99361.72;4998980;28;20072;-94
2023/12/25 02:30:38;;;;;;;13.30;2.00;;;;;;;9.49;100.00;99374.72;5003440;28;20466;-95
2023/12/25 02:33:17;;;;;;;16.67;2.22;;;;;;;9.55;100.00;99377.56;5002585;28;20041;-95
2023/12/25 02:35:55;;;;;;;11.32;2.53;;;;;;;9.48;100.00;99368.63;5000311;22;20048;-90
2023/12/25 02:38:22;;;;;;;11.82;2.33;;;;;;;9.45;100.00;99368.94;4962823;28;20403;-90
2023/12/25 02:43:32;;;;;;;21.08;2.72;;;;;;;9.49;100.00;99370.25;4979079;28;20062;-91
2023/12/25 02:45:58;;;;;;;13.98;1.92;;;;;;;9.41;100.00;99363.16;4977027;28;20034;-91
2023/12/25 02:48:30;;;;;;;10.57;2.00;;;;;;;9.38;100.00;99365.34;4959320;28;20133;-91
2023/12/25 02:50:57;;;;;;;18.48;2.30;;;;;;;9.46;100.00;99375.88;4958031;28;20066;-91
2023/12/25 02:53:23;;;;;;;23.77;3.40;;;;;;;9.49;100.00;99359.72;4983392;28;20042;-91
2023/12/25 02:55:49;;;;;;;24.73;4.38;;;;;;;9.45;100.00;99362.84;4959816;28;20038;-91
2023/12/25 02:58:21;;;;;;;25.05;3.78;;;;;;;9.40;100.00;99361.53;4965807;28;20517;-91
2023/12/25 03:00:47;;;;;;;26.45;3.85;;;;;;;9.42;100.00;99369.28;4964663;28;20039;-91
2023/12/25 03:03:13;;;;;;;19.27;3.00;;;;;;;9.41;100.00;99373.72;4967673;28;20042;-91
2023/12/25 03:05:42;;;;;;;23.92;3.17;;;;;;;9.41;100.00;99368.44;4960447;28;20137;-91
2023/12/25 03:08:14;;;;;;;22.93;5.13;;;;;;;9.38;100.00;99371.41;4976734;28;20064;-91
2023/12/25 03:10:43;;;;;;;26.85;4.82;;;;;;;9.40;100.00;99368.63;4976970;28;20034;-91
2023/12/25 03:13:13;;;;;;;21.13;2.90;;;;;;;9.42;100.00;99372.75;4956451;28;20081;-91
2023/12/25 03:15:42;;;;;;;31.13;4.57;;;;;;;9.35;100.00;99374.38;4977247;28;20037;-91
2023/12/25 03:18:07;;;;;;;14.57;2.20;;;;;;;9.33;100.00;99388.72;4947467;28;20125;-91
2023/12/25 03:20:33;;;;;;;19.98;3.05;;;;;;;9.30;100.00;99385.41;4959420;28;20035;-91
2023/12/25 03:22:59;;;;;;;15.25;2.60;;;;;;;9.30;100.00;99389.88;4961941;28;20518;-91
2023/12/25 03:25:25;;;;;;;18.42;2.10;;;;;;;9.26;100.00;99386.75;4954467;28;20036;-91
2023/12/25 03:27:51;;;;;;;23.45;2.63;;;;;;;9.24;100.00;99391.34;4972222;28;20081;-91
2023/12/25 03:30:17;;;;;;;23.27;4.68;;;;;;;9.27;100.00;99384.94;4972739;28;20058;-91
2023/12/25 03:32:45;;;;;;;16.17;3.78;;;;;;;9.28;100.00;99392.69;4968164;28;20062;-91
2023/12/25 03:35:11;;;;;;;31.15;9.88;;;;;;;9.29;100.00;99396.13;4969274;28;20140;-91
2023/12/25 03:37:37;;;;;;;23.83;8.05;;;;;;;9.29;100.00;99396.13;4976618;28;20045;-91
2023/12/25 03:40:03;;;;;;;26.30;6.80;;;;;;;9.27;100.00;99385.75;4970916;28;20093;-91
2023/12/25 03:42:29;;;;;;;23.63;4.10;;;;;;;9.27;100.00;99388.38;4951137;28;20521;-92
2023/12/25 03:44:55;;;;;;;30.20;9.38;;;;;;;9.25;100.00;99379.00;4980097;28;20026;-91
2023/12/25 03:47:21;;;;;;;25.40;4.30;;;;;;;9.29;100.00;99367.13;4958744;28;20038;-91
2023/12/25 03:49:47;;;;;;;25.88;7.70;;;;;;;9.29;100.00;99367.97;4973955;28;20026;-91
2023/12/25 03:52:13;;;;;;;24.45;8.27;;;;;;;9.27;100.00;99363.84;4973414;28;20039;-91
2023/12/25 03:54:38;;;;;;;29.70;7.05;;;;;;;9.23;100.00;99352.78;4976387;28;20057;-91
2023/12/25 03:57:06;;;;;;;24.85;6.88;;;;;;;9.23;100.00;99357.22;4968757;28;20053;-91
2023/12/25 03:59:32;;;;;;;36.53;6.72;;;;;;;9.25;100.00;99356.06;4974074;28;20031;-92
2023/12/25 04:01:58;;;;;;;31.15;4.57;;;;;;;9.28;100.00;99370.75;4976960;28;20391;-91
2023/12/25 04:04:24;;;;;;;26.02;4.20;;;;;;;9.27;100.00;99361.19;4955661;28;20042;-91
2023/12/25 04:06:49;;;;;;;38.60;4.35;;;;;;;9.24;100.00;99357.06;4958721;28;20034;-91
2023/12/25 04:09:16;;;;;;;28.77;3.58;;;;;;;9.25;100.00;99358.69;4965457;28;20043;-91
2023/12/25 04:11:42;;;;;;;34.53;3.90;;;;;;;9.23;100.00;99347.50;4966702;28;20475;-96
2023/12/25 04:14:08;;;;;;;25.13;3.80;;;;;;;9.23;100.00;99347.50;4979246;28;20042;-95
2023/12/25 04:16:34;;;;;;;33.92;4.85;;;;;;;9.24;100.00;99340.41;4962913;28;20035;-91
2023/12/25 04:19:01;;;;;;;31.20;4.68;;;;;;;9.27;100.00;99338.28;4961337;28;20034;-91
2023/12/25 04:21:32;;;;;;;33.58;4.70;;;;;;;9.29;100.00;99338.13;4958998;28;20655;-91
2023/12/25 04:23:59;;;;;;;25.63;3.47;;;;;;;9.31;100.00;99344.06;4975882;28;20039;-91
2023/12/25 04:26:26;;;;;;;27.05;4.95;;;;;;;9.26;100.00;99331.38;4982953;28;20034;-94
2023/12/25 04:28:52;;;;;;;31.48;4.10;;;;;;;9.29;100.00;99333.69;4991399;28;20041;-95
2023/12/25 04:31:20;;;;;;;25.67;3.15;;;;;;;9.34;100.00;99338.47;4982497;28;20034;-91
2023/12/25 04:33:46;;;;;;;29.67;4.00;;;;;;;9.36;100.00;99335.66;4960648;28;20034;-91
2023/12/25 04:36:11;;;;;;;28.83;4.60;;;;;;;9.41;100.00;99343.91;4969994;28;20510;-91
2023/12/25 04:38:38;;;;;;;33.15;4.00;;;;;;;9.49;100.00;99348.34;4990304;28;20092;-91
2023/12/25 04:41:05;;;;;;;26.38;4.43;;;;;;;9.52;100.00;99345.38;4974057;28;20057;-92
2023/12/25 04:43:31;;;;;;;27.17;4.05;;;;;;;9.49;100.00;99338.59;4952208;28;20078;-92
2023/12/25 04:45:58;;;;;;;17.17;3.70;;;;;;;9.48;100.00;99341.41;4970768;28;20038;-91
2023/12/25 04:48:24;;;;;;;32.97;6.30;;;;;;;9.52;100.00;99345.38;4974050;28;20558;-91
2023/12/25 04:50:50;;;;;;;22.67;3.53;;;;;;;9.48;100.00;99339.59;4953409;28;20043;-91
2023/12/25 04:53:16;;;;;;;27.45;3.75;;;;;;;9.47;100.00;99337.97;4950068;28;20509;-91
2023/12/25 04:55:42;;;;;;;19.20;3.17;;;;;;;9.47;100.00;99337.13;4953166;28;20031;-91
2023/12/25 04:58:08;;;;;;;32.53;3.75;;;;;;;9.45;100.00;99339.94;4955800;28;20039;-91
2023/12/25 05:00:34;;;;;;;37.63;5.53;;;;;;;9.50;100.00;99342.09;4955148;28;20550;-92
2023/12/25 05:03:00;;;;;;;21.77;4.10;;;;;;;9.47;100.00;99334.50;4959057;28;20038;-91
2023/12/25 05:05:26;;;;;;;29.88;3.97;;;;;;;9.47;100.00;99343.25;4982352;28;20132;-91
2023/12/25 05:07:52;;;;;;;23.13;3.13;;;;;;;9.53;100.00;99345.22;4951340;28;20455;-91
2023/12/25 05:10:18;;;;;;;23.55;3.47;;;;;;;9.46;100.00;99333.66;4949357;28;20030;-91
2023/12/25 05:12:44;;;;;;;22.40;3.33;;;;;;;9.47;100.00;99329.22;4954864;28;20030;-90
2023/12/25 05:15:12;;;;;;;27.30;2.50;;;;;;;9.48;100.00;99338.78;4960247;28;20066;-91
2023/12/25 05:17:39;;;;;;;22.35;2.60;;;;;;;9.52;100.00;99337.47;4958889;28;20116;-92
2023/12/25 05:20:07;;;;;;;15.75;2.55;;;;;;;9.54;100.00;99338.94;4969496;28;20049;-92
2023/12/25 05:22:34;;;;;;;22.20;2.25;;;;;;;9.51;100.00;99339.28;4961397;28;20140;-91
2023/12/25 05:24:59;;;;;;;15.77;2.42;;;;;;;9.55;100.00;99345.91;4957167;28;20121;-91
2023/12/25 05:27:26;;;;;;;20.30;2.22;;;;;;;9.54;100.00;99346.88;4953564;28;20035;-91
2023/12/25 05:29:52;;;;;;;16.60;2.35;;;;;;;9.55;100.00;99345.06;4950584;28;20505;-91
2023/12/25 05:32:18;;;;;;;12.52;1.88;;;;;;;9.57;100.00;99348.38;4955512;28;20034;-91
2023/12/25 05:34:44;;;;;;;16.35;2.08;;;;;;;9.60;100.00;99337.47;4960385;28;20034;-91
2023/12/25 05:37:10;;;;;;;14.77;2.30;;;;;;;9.59;100.00;99340.28;4970512;28;20046;-96
2023/12/25 05:39:36;;;;;;;10.60;1.70;;;;;;;9.60;100.00;99339.28;4975423;28;20098;-95
2023/12/25 05:42:02;;;;;;;13.68;1.90;;;;;;;9.64;100.00;99340.59;4974700;28;20499;-91
2023/12/25 05:44:28;;;;;;;9.30;1.58;;;;;;;9.58;100.00;99343.91;4956354;28;20041;-91
2023/12/25 05:46:54;;;;;;;17.05;2.03;;;;;;;9.58;100.00;99341.25;4956842;28;20039;-91
2023/12/25 05:49:20;;;;;;;15.90;2.25;;;;;;;9.53;100.00;99339.94;4952528;28;20040;-90
2023/12/25 05:51:46;;;;;;;17.00;2.72;;;;;;;9.55;100.00;99348.53;4962854;28;20026;-91
2023/12/25 05:54:12;;;;;;;27.27;7.90;;;;;;;9.51;100.00;99336.63;4969528;28;20049;-91
2023/12/25 05:56:38;;;;;;;43.03;19.73;;;;;;;9.48;100.00;99325.59;4945256;28;20027;-91
2023/12/25 05:59:04;;;;;;;23.42;4.32;;;;;;;9.49;100.00;99317.50;4949077;28;20034;-91
2023/12/25 06:01:33;;;;;;;17.60;3.60;;;;;;;9.45;100.00;99313.56;4958270;28;20054;-96
2023/12/25 06:04:04;;;;;;;24.95;6.80;;;;;;;9.35;100.00;99308.44;4970287;28;20121;-94
2023/12/25 06:06:30;;;;;;;30.83;9.55;;;;;;;9.39;100.00;99312.44;4971539;28;20038;-91
2023/12/25 06:08:56;;;;;;;73.50;43.85;;;;;;;9.44;100.00;99330.38;4951722;28;20041;-90
2023/12/25 06:11:21;;;;;;;25.30;7.30;;;;;;;9.39;100.00;99314.22;4971915;28;20038;-91
2023/12/25 06:13:47;;;;;;;26.38;5.68;;;;;;;9.35;100.00;99328.75;4972400;28;20574;-90
2023/12/25 06:16:13;;;;;;;64.60;28.67;;;;;;;9.29;100.00;99315.22;4953253;28;20132;-91
2023/12/25 06:18:39;;;;;;;41.22;14.60;;;;;;;9.32;100.00;99326.44;4972594;28;20501;-92
2023/12/25 06:21:05;;;;;;;25.55;9.30;;;;;;;9.28;100.00;99331.19;4951975;28;20071;-91
2023/12/25 06:23:31;;;;;;;26.92;8.77;;;;;;;9.32;100.00;99343.06;4955721;28;20538;-91
2023/12/25 06:25:58;;;;;;;48.83;24.27;;;;;;;9.30;100.00;99332.69;4974458;28;20039;-96
2023/12/25 06:28:25;;;;;;;29.13;9.18;;;;;;;9.32;100.00;99340.41;4971279;28;20455;-95
2023/12/25 06:30:51;;;;;;;29.00;7.85;;;;;;;9.36;100.00;99335.66;4964736;28;20113;-91
2023/12/25 06:33:18;;;;;;;19.02;6.18;;;;;;;9.37;100.00;99335.50;4951592;28;20487;-91
2023/12/25 06:35:44;;;;;;;18.95;3.15;;;;;;;9.37;100.00;99329.38;4971407;28;20048;-92
2023/12/25 06:38:12;;;;;;;22.90;6.43;;;;;;;9.39;100.00;99336.16;4956161;28;20117;-92
2023/12/25 06:40:38;;;;;;;18.50;2.85;;;;;;;9.34;100.00;99348.16;4967125;28;20126;-91
2023/12/25 06:43:04;;;;;;;15.90;1.85;;;;;;;9.38;100.00;99352.94;4971653;28;20058;-91
2023/12/25 06:45:37;;;;;;;18.10;2.35;;;;;;;9.34;100.00;99353.44;4949922;28;20042;-95
2023/12/25 06:48:04;;;;;;;17.42;4.45;;;;;;;9.35;100.00;99349.84;4976928;28;20046;-96
2023/12/25 06:50:30;;;;;;;20.33;6.30;;;;;;;9.38;100.00;99346.88;4974986;28;20141;-91
2023/12/25 06:52:56;;;;;;;22.20;4.90;;;;;;;9.40;100.00;99347.50;4974459;28;20041;-91
2023/12/25 06:55:23;;;;;;;15.98;5.60;;;;;;;9.39;100.00;99356.44;4972024;28;20038;-95
2023/12/25 06:57:51;;;;;;;24.02;7.28;;;;;;;9.39;100.00;99353.78;4989086;28;20039;-95
2023/12/25 07:00:17;;;;;;;15.90;3.58;;;;;;;9.43;100.00;99350.66;4973266;28;20038;-91
2023/12/25 07:02:43;;;;;;;18.13;5.43;;;;;;;9.38;100.00;99328.41;4977182;28;20589;-91
2023/12/25 07:05:09;;;;;;;77.70;37.83;;;;;;;9.41;100.00;99336.81;4974037;28;20070;-90
2023/12/25 07:07:36;;;;;;;59.83;25.73;;;;;;;9.42;100.00;99335.84;4967054;28;20089;-90
2023/12/25 07:10:06;;;;;;;47.20;18.73;;;;;;;9.47;100.00;99348.53;4969653;28;20031;-90
2023/12/25 07:12:31;;;;;;;48.20;18.73;;;;;;;9.37;100.00;99321.47;4953698;28;20125;-90
2023/12/25 07:15:07;;;;;;;31.88;9.80;;;;;;;9.42;100.00;99308.63;4965289;28;20104;-90
2023/12/25 07:17:36;;;;;;;51.35;20.35;;;;;;;9.38;100.00;99312.59;4970669;28;20117;-90
2023/12/25 07:20:11;;;;;;;98.00;47.72;;;;;;;9.40;100.00;99302.69;4972589;28;20113;-95
2023/12/25 07:22:37;;;;;;;56.43;27.17;;;;;;;9.28;100.00;99310.09;4966747;28;20126;-95
2023/12/25 07:25:06;;;;;;;36.90;16.48;;;;;;;9.27;100.00;99313.75;4971587;28;20046;-91
2023/12/25 07:27:32;;;;;;;27.70;10.85;;;;;;;9.26;100.00;99306.81;4967324;28;20034;-91
2023/12/25 07:29:58;;;;;;;45.33;26.65;;;;;;;9.21;100.00;99306.47;4959782;28;20026;-91
2023/12/25 07:32:24;;;;;;;27.35;12.55;;;;;;;9.24;100.00;99309.59;4954107;28;20068;-91
2023/12/25 07:34:51;;;;;;;29.73;15.32;;;;;;;9.24;100.00;99303.50;4958726;28;20054;-89
2023/12/25 07:37:17;;;;;;;16.05;5.22;;;;;;;9.14;100.00;99320.28;4968342;28;20046;-90
2023/12/25 07:39:43;;;;;;;19.50;3.85;;;;;;;9.15;100.00;99321.13;4957273;28;20031;-90
2023/12/25 07:42:09;;;;;;;15.05;5.00;;;;;;;9.15;100.00;99329.88;4961594;28;20077;-90
2023/12/25 07:44:42;;;;;;;13.85;3.75;;;;;;;9.20;100.00;99324.09;4974900;28;20042;-92
2023/12/25 07:47:08;;;;;;;23.42;7.15;;;;;;;9.13;100.00;99328.38;4966156;28;20129;-90
2023/12/25 07:49:33;;;;;;;19.15;3.95;;;;;;;9.12;100.00;99335.47;4966920;28;20166;-92
2023/12/25 07:52:00;;;;;;;16.40;3.60;;;;;;;9.12;100.00;99343.38;4971105;28;20038;-92
2023/12/25 07:54:26;;;;;;;11.77;2.17;;;;;;;9.10;100.00;99332.16;4961795;28;20037;-91
2023/12/25 07:56:51;;;;;;;11.93;2.10;;;;;;;9.04;100.00;99335.44;4955498;28;20818;-91
2023/12/25 07:59:20;;;;;;;18.02;3.92;;;;;;;9.06;100.00;99336.94;4956823;28;20095;-90
2023/12/25 08:01:46;;;;;;;13.15;3.33;;;;;;;9.06;100.00;99344.84;4973693;28;20041;-91
2023/12/25 08:04:12;;;;;;;18.45;3.78;;;;;;;9.09;100.00;99354.25;4955654;28;20394;-91
2023/12/25 08:06:38;;;;;;;16.45;4.82;;;;;;;9.09;100.00;99353.41;4963873;28;20043;-91
2023/12/25 08:09:04;;;;;;;19.27;6.65;;;;;;;9.09;100.00;99350.78;4961245;28;20065;-91
2023/12/25 08:11:30;;;;;;;18.20;3.83;;;;;;;9.06;100.00;99338.75;4971386;28;20035;-91
2023/12/25 08:13:56;;;;;;;19.83;4.50;;;;;;;9.12;100.00;99337.28;4971288;28;20687;-91
2023/12/25 08:16:22;;;;;;;23.48;4.88;;;;;;;9.09;100.00;99324.41;4955569;28;20042;-91
2023/12/25 08:18:48;;;;;;;19.35;3.60;;;;;;;9.03;100.00;99318.00;4947226;28;20074;-91
2023/12/25 08:21:14;;;;;;;22.10;3.03;;;;;;;9.02;100.00;99298.72;4968668;28;20034;-91
2023/12/25 08:23:43;;;;;;;19.98;2.53;;;;;;;9.11;100.00;99309.28;4957185;28;20046;-91
2023/12/25 08:26:09;;;;;;;21.20;2.67;;;;;;;9.01;100.00;99302.34;4968090;28;20030;-91
2023/12/25 08:28:37;;;;;;;19.45;4.15;;;;;;;9.06;100.00;99307.94;4954760;28;20072;-92
2023/12/25 08:31:04;;;;;;;18.42;4.05;;;;;;;9.04;100.00;99296.75;4971173;28;20027;-92
2023/12/25 08:33:30;;;;;;;15.38;2.78;;;;;;;9.03;100.00;99287.16;4972007;28;20122;-91
2023/12/25 08:35:56;;;;;;;26.95;5.38;;;;;;;9.04;100.00;99283.56;4964253;28;20061;-96
2023/12/25 08:38:22;;;;;;;25.40;5.50;;;;;;;9.03;100.00;99279.25;4984656;28;20030;-95
2023/12/25 08:40:48;;;;;;;19.10;4.13;;;;;;;9.09;100.00;99282.25;4965413;28;20027;-92
2023/12/25 08:43:14;;;;;;;20.90;5.45;;;;;;;9.02;100.00;99275.00;4971063;28;20051;-91
2023/12/25 08:45:40;;;;;;;23.48;4.60;;;;;;;9.08;100.00;99285.88;4957543;28;20045;-91
2023/12/25 08:48:06;;;;;;;16.02;3.20;;;;;;;9.11;100.00;99293.47;4954160;28;20068;-90
2023/12/25 08:50:32;;;;;;;20.48;4.72;;;;;;;9.06;100.00;99297.38;4957163;28;20062;-92
2023/12/25 08:52:58;;;;;;;25.45;4.82;;;;;;;9.06;100.00;99305.28;4942210;28;20030;-91
2023/12/25 08:55:24;;;;;;;25.85;4.78;;;;;;;9.02;100.00;99317.16;4966559;28;20069;-92
2023/12/25 08:57:50;;;;;;;30.60;9.52;;;;;;;9.07;100.00;99316.66;4954752;28;20097;-91
2023/12/25 09:00:17;;;;;;;32.90;13.45;;;;;;;9.10;100.00;99315.50;4976096;28;20579;-95
2023/12/25 09:02:43;;;;;;;54.55;16.63;;;;;;;9.08;100.00;99306.97;4980607;28;20129;-95
2023/12/25 09:05:09;;;;;;;59.00;25.83;;;;;;;9.11;100.00;99307.44;4979385;28;20053;-92
2023/12/25 09:07:35;;;;;;;25.83;5.28;;;;;;;9.14;100.00;99308.94;4956908;28;20054;-91
2023/12/25 09:10:01;;;;;;;32.42;10.48;;;;;;;9.17;100.00;99304.16;4954273;28;20395;-92
2023/12/25 09:12:27;;;;;;;27.83;9.98;;;;;;;9.20;100.00;99300.38;4966519;28;20058;-92
2023/12/25 09:14:53;;;;;;;29.67;6.88;;;;;;;9.21;100.00;99288.00;4959880;28;20069;-92
2023/12/25 09:17:19;;;;;;;31.80;7.50;;;;;;;9.22;100.00;99279.13;4974954;28;20261;-91
2023/12/25 09:19:47;;;;;;;28.15;6.47;;;;;;;9.24;100.00;99275.31;4969824;28;20038;-92
2023/12/25 09:22:13;;;;;;;32.33;6.90;;;;;;;9.22;100.00;99268.56;4952680;28;20072;-92
2023/12/25 09:24:41;;;;;;;19.85;6.30;;;;;;;9.26;100.00;99267.25;4958312;28;20034;-92
2023/12/25 09:27:09;;;;;;;32.08;7.78;;;;;;;9.20;100.00;99273.19;5020407;23;20038;-96
2023/12/25 09:29:41;;;;;;;21.02;6.57;;;;;;;9.22;100.00;99287.03;5027002;28;20018;-96
2023/12/25 09:32:18;;;;;;;19.90;7.30;;;;;;;9.20;100.00;99268.75;5018333;22;20081;-92
2023/12/25 09:34:44;;;;;;;28.88;6.45;;;;;;;9.22;100.00;99250.94;4993465;28;20091;-91
2023/12/25 09:37:10;;;;;;;24.15;5.22;;;;;;;9.23;100.00;99246.47;4984436;28;20042;-96
2023/12/25 09:39:36;;;;;;;28.63;8.57;;;;;;;9.23;100.00;99252.59;4997940;28;20046;-96
2023/12/25 09:42:04;;;;;;;29.20;12.25;;;;;;;9.30;100.00;99263.31;4986850;28;20034;-96
2023/12/25 09:44:31;;;;;;;33.10;8.38;;;;;;;9.29;100.00;99270.38;4987031;28;20044;-96
2023/12/25 09:46:59;;;;;;;28.17;11.75;;;;;;;9.28;100.00;99271.38;4981641;28;20030;-96
2023/12/25 09:49:27;;;;;;;25.80;6.68;;;;;;;9.32;100.00;99257.88;4991107;28;20064;-96
2023/12/25 09:51:55;;;;;;;15.30;4.22;;;;;;;9.33;100.00;99252.44;4996390;28;20042;-96
2023/12/25 09:54:21;;;;;;;18.05;3.53;;;;;;;9.34;100.00;99253.22;4979356;28;20797;-96
2023/12/25 09:56:48;;;;;;;21.23;3.83;;;;;;;9.33;100.00;99259.50;4997653;28;20030;-96
2023/12/25 09:59:14;;;;;;;17.17;4.75;;;;;;;9.33;100.00;99278.81;5004054;28;20084;-96
2023/12/25 10:01:41;;;;;;;21.45;5.53;;;;;;;9.33;100.00;99272.69;5012710;28;20038;-96
2023/12/25 10:04:08;;;;;;;19.55;5.75;;;;;;;9.35;100.00;99284.72;4994908;28;20129;-96
2023/12/25 10:06:35;;;;;;;22.20;6.88;;;;;;;9.34;100.00;99275.16;4979364;28;20041;-96
2023/12/25 10:09:00;;;;;;;23.30;3.40;;;;;;;9.34;100.00;99269.06;4991817;28;20117;-96
2023/12/25 10:11:27;;;;;;;18.77;6.65;;;;;;;9.36;100.00;99264.44;4995030;28;20538;-96
2023/12/25 10:13:54;;;;;;;20.17;3.33;;;;;;;9.36;100.00;99253.91;4979996;28;20034;-96
2023/12/25 10:16:22;;;;;;;18.75;3.13;;;;;;;9.37;100.00;99269.56;4985270;28;20038;-96
2023/12/25 10:18:49;;;;;;;19.35;3.00;;;;;;;9.35;100.00;99270.72;4996417;28;20037;-96
2023/12/25 10:21:15;;;;;;;19.23;3.03;;;;;;;9.36;100.00;99269.72;4990366;28;20036;-96
2023/12/25 10:23:42;;;;;;;24.45;3.80;;;;;;;9.40;100.00;99263.94;4995946;28;20034;-96
2023/12/25 10:26:07;;;;;;;17.00;2.58;;;;;;;9.43;100.00;99268.06;4998175;28;20042;-96
2023/12/25 10:28:34;;;;;;;30.45;9.38;;;;;;;9.44;100.00;99269.72;4996440;28;20034;-96
2023/12/25 10:31:07;;;;;;;70.80;28.85;;;;;;;9.49;100.00;99263.94;4997330;28;20034;-96
2023/12/25 10:33:36;;;;;;;52.97;21.67;;;;;;;9.48;100.00;99270.19;4978200;28;20056;-96
2023/12/25 10:36:07;;;;;;;32.45;11.93;;;;;;;9.47;100.00;99258.84;4981940;28;20034;-96
2023/12/25 10:38:38;;;;;;;46.67;20.33;;;;;;;9.51;100.00;99241.69;4985511;28;20045;-96
2023/12/25 10:41:24;;;;;;;25.95;9.27;;;;;;;9.54;100.00;99235.22;4987427;28;20120;-96
2023/12/25 10:43:55;;;;;;;23.73;7.93;;;;;;;9.49;100.00;99217.28;4986842;28;20448;-96
2023/12/25 10:46:23;;;;;;;29.13;9.65;;;;;;;9.49;100.00;99219.13;4995984;28;20057;-96
2023/12/25 10:48:54;;;;;;;24.30;7.68;;;;;;;9.49;100.00;99224.38;4982104;28;20445;-96
2023/12/25 10:51:30;;;;;;;34.67;16.45;;;;;;;9.53;100.00;99220.41;4987484;28;20112;-96
2023/12/25 10:54:04;;;;;;;40.17;13.85;;;;;;;9.59;100.00;99227.66;4990387;28;20482;-96
2023/12/25 10:56:35;;;;;;;18.67;7.30;;;;;;;9.59;100.00;99243.47;4993681;28;20042;-96
2023/12/25 10:59:16;;;;;;;22.73;7.85;;;;;;;9.56;100.00;99228.00;5000391;28;20036;-96
2023/12/25 11:01:48;;;;;;;25.27;9.45;;;;;;;9.56;100.00;99228.00;5003063;28;20498;-96
2023/12/25 11:04:16;;;;;;;23.50;7.03;;;;;;;9.53;100.00;99239.72;4976257;28;20034;-96
2023/12/25 11:06:46;;;;;;;21.63;3.63;;;;;;;9.55;100.00;99232.47;5012912;28;21190;-96
2023/12/25 11:09:13;;;;;;;17.08;4.78;;;;;;;9.53;100.00;99226.53;4987436;28;20421;-96
2023/12/25 11:11:44;;;;;;;19.77;3.60;;;;;;;9.60;100.00;99223.22;5001310;28;20072;-96
2023/12/25 11:14:11;;;;;;;24.58;4.43;;;;;;;9.55;100.00;99216.63;5031826;28;20061;-96
2023/12/25 11:16:37;;;;;;;20.55;6.07;;;;;;;9.52;100.00;99213.50;5000475;28;20030;-96
2023/12/25 11:19:05;;;;;;;17.65;5.20;;;;;;;9.57;100.00;99221.75;4998341;28;20053;-96
2023/12/25 11:21:40;;;;;;;22.90;8.02;;;;;;;9.59;100.00;99209.19;4984120;28;20030;-96
2023/12/25 11:24:07;;;;;;;14.75;2.75;;;;;;;9.59;100.00;99205.75;4987463;28;20038;-96
2023/12/25 11:26:34;;;;;;;13.02;1.92;;;;;;;9.59;100.00;99211.81;5009298;28;20061;-96
2023/12/25 11:29:30;;;;;;;16.00;3.17;;;;;;;9.63;100.00;99220.22;4988836;28;20045;-96
2023/12/25 11:32:07;;;;;;;13.88;2.05;;;;;;;9.61;100.00;99217.75;5007644;28;20046;-96
2023/12/25 11:34:48;;;;;;;10.45;2.10;;;;;;;9.63;100.00;99221.06;5005281;28;20037;-96
2023/12/25 11:37:23;;;;;;;21.80;2.88;;;;;;;9.64;100.00;99235.06;4996360;28;20028;-96
2023/12/25 11:39:57;;;;;;;13.20;1.95;;;;;;;9.66;100.00;99225.16;5000512;28;20038;-96
2023/12/25 11:42:25;;;;;;;12.07;1.58;;;;;;;9.61;100.00;99249.41;4988825;28;20042;-96
2023/12/25 11:44:56;;;;;;;4.07;0.77;;;;;;;9.57;100.00;99250.75;5015025;28;20034;-96
2023/12/25 11:47:30;;;;;;;6.68;0.93;;;;;;;9.58;100.00;99239.22;4993872;28;20065;-96
2023/12/25 11:49:56;;;;;;;6.95;1.25;;;;;;;9.46;100.00;99245.81;5008309;28;20105;-96
2023/12/25 11:52:58;;;;;;;7.82;1.58;;;;;;;9.52;100.00;99255.69;5004280;28;20041;-96
2023/12/25 11:55:25;;;;;;;9.20;1.33;;;;;;;9.41;100.00;99249.75;4956871;28;20110;-96
2023/12/25 11:57:53;;;;;;;8.18;1.35;;;;;;;9.38;100.00;99231.63;4996283;28;20042;-96
2023/12/25 12:00:33;;;;;;;10.32;1.90;;;;;;;9.42;100.00;99251.44;4987674;28;20495;-96
2023/12/25 12:03:00;;;;;;;12.32;1.90;;;;;;;9.38;100.00;99241.38;4986053;28;20034;-96
2023/12/25 12:05:30;;;;;;;16.55;2.47;;;;;;;9.35;100.00;99236.44;4991365;28;20399;-96
2023/12/25 12:07:57;;;;;;;16.38;2.40;;;;;;;9.38;100.00;99246.66;4997527;28;20034;-96